createdAt,value
2023-05-01T00:02:24.232Z,100740.28
2023-05-01T00:04:51.565Z,100731.56
2023-05-01T00:07:18.584Z,100736.50
2023-05-01T00:09:46.048Z,100735.94
2023-05-01T00:12:13.212Z,100725.88
2023-05-01T00:14:42.389Z,100730.22
2023-05-01T00:17:10.713Z,100718.03
2023-05-01T00:19:37.945Z,100694.09
2023-05-01T00:22:04.880Z,100715.38
2023-05-01T00:24:32.106Z,100696.06
2023-05-01T00:26:59.276Z,100638.97
2023-05-01T00:29:26.718Z,100731.22
2023-05-01T00:31:54.539Z,100698.91
2023-05-01T00:34:25.128Z,100738.69
2023-05-01T00:36:52.362Z,100711.66
2023-05-01T00:39:19.731Z,100745.81
2023-05-01T00:41:46.672Z,100720.63
2023-05-01T00:44:13.974Z,100717.13
2023-05-01T00:46:40.940Z,100738.13
2023-05-01T00:49:10.777Z,100718.25
2023-05-01T00:51:39.313Z,100737.59
2023-05-01T00:54:07.245Z,100729.44
2023-05-01T00:56:34.167Z,100743.84
2023-05-01T00:59:01.550Z,100748.78
2023-05-01T01:01:28.922Z,100745.00
2023-05-01T01:03:56.735Z,100747.94
2023-05-01T01:06:33.117Z,100703.00
2023-05-01T01:09:13.045Z,100753.00
2023-05-01T01:11:46.476Z,100745.28
2023-05-01T01:14:19.096Z,100750.59
2023-05-01T01:16:55.020Z,100741.50
2023-05-01T01:19:45.741Z,100756.75
2023-05-01T01:22:18.986Z,100756.03
2023-05-01T01:25:16.525Z,100759.56
2023-05-01T01:28:06.485Z,100752.13
2023-05-01T01:31:09.018Z,100760.81
2023-05-01T01:33:59.056Z,100756.59
2023-05-01T01:36:34.903Z,100726.78
2023-05-01T01:39:10.536Z,100714.63
2023-05-01T01:41:39.448Z,100765.56
2023-05-01T01:44:12.814Z,100758.88
2023-05-01T01:46:42.830Z,100763.47
2023-05-01T01:49:15.841Z,100761.25
2023-05-01T01:51:45.542Z,100759.44
2023-05-01T01:54:18.412Z,100765.31
2023-05-01T01:56:47.331Z,100756.75
2023-05-01T01:59:15.912Z,100762.22
2023-05-01T02:01:44.720Z,100767.25
2023-05-01T02:04:15.195Z,100765.56
2023-05-01T02:06:44.773Z,100739.81
2023-05-01T02:09:12.686Z,100761.66
2023-05-01T02:11:41.448Z,100755.34
2023-05-01T02:14:10.795Z,100754.53
2023-05-01T02:16:38.232Z,100764.31
2023-05-01T02:19:05.562Z,100750.16
2023-05-01T02:21:37.805Z,100751.13
2023-05-01T02:24:06.636Z,100753.81
2023-05-01T02:26:38.720Z,100747.66
2023-05-01T02:29:07.501Z,100756.63
2023-05-01T02:31:34.582Z,100753.09
2023-05-01T02:34:01.570Z,100750.97
2023-05-01T02:36:29.078Z,100748.69
2023-05-01T02:38:58.016Z,100756.94
2023-05-01T02:41:27.974Z,100738.03
2023-05-01T02:44:00.624Z,100754.84
2023-05-01T02:46:29.736Z,100756.25
2023-05-01T02:48:58.188Z,100757.09
2023-05-01T02:51:26.545Z,100760.56
2023-05-01T02:53:54.353Z,100755.13
2023-05-01T02:56:23.543Z,100765.63
2023-05-01T02:58:50.502Z,100756.38
2023-05-01T03:01:17.836Z,100763.22
2023-05-01T03:03:45.033Z,100762.06
2023-05-01T03:06:14.335Z,100765.31
2023-05-01T03:08:41.078Z,100770.78
2023-05-01T03:11:08.340Z,100764.03
2023-05-01T03:13:36.764Z,100773.13
2023-05-01T03:16:04.868Z,100777.84
2023-05-01T03:18:34.163Z,100764.25
2023-05-01T03:21:01.567Z,100788.22
2023-05-01T03:23:28.677Z,100785.13
2023-05-01T03:25:56.111Z,100790.00
2023-05-01T03:28:23.652Z,100790.13
2023-05-01T03:30:52.979Z,100790.00
2023-05-01T03:33:19.811Z,100792.91
2023-05-01T03:35:47.943Z,100793.19
2023-05-01T03:38:16.407Z,100790.22
2023-05-01T03:40:43.748Z,100797.47
2023-05-01T03:43:10.713Z,100791.03
2023-05-01T03:45:38.063Z,100792.28
2023-05-01T03:48:06.766Z,100786.59
2023-05-01T03:50:33.839Z,100793.31
2023-05-01T03:53:00.751Z,100789.97
2023-05-01T03:55:28.008Z,100798.38
2023-05-01T03:57:55.117Z,100792.66
2023-05-01T04:00:22.517Z,100784.97
2023-05-01T04:02:49.829Z,100782.84
2023-05-01T04:05:19.094Z,100793.94
2023-05-01T04:07:46.442Z,100791.72
2023-05-01T04:10:13.784Z,100796.38
2023-05-01T04:12:41.120Z,100782.66
2023-05-01T04:15:09.928Z,100784.50
2023-05-01T04:17:37.245Z,100786.91
2023-05-01T04:20:08.298Z,100788.91
2023-05-01T04:22:37.273Z,100791.31
2023-05-01T04:25:05.104Z,100796.69
2023-05-01T04:27:32.103Z,100796.53
2023-05-01T04:29:59.526Z,100803.28
2023-05-01T04:32:26.882Z,100807.16
2023-05-01T04:34:54.284Z,100805.84
2023-05-01T04:37:21.194Z,100806.44
2023-05-01T04:39:50.976Z,100806.28
2023-05-01T04:42:18.313Z,100799.53
2023-05-01T04:44:45.904Z,100798.16
2023-05-01T04:47:12.961Z,100801.81
2023-05-01T04:49:40.336Z,100807.06
2023-05-01T04:52:07.270Z,100803.31
2023-05-01T04:54:34.608Z,100811.66
2023-05-01T04:57:03.349Z,100806.97
2023-05-01T04:59:30.628Z,100787.03
2023-05-01T05:01:57.697Z,100798.91
2023-05-01T05:04:25.188Z,100784.34
2023-05-01T05:06:52.390Z,100805.09
2023-05-01T05:09:20.334Z,100783.50
2023-05-01T05:11:47.429Z,100785.59
2023-05-01T05:14:16.087Z,100796.53
2023-05-01T05:16:43.236Z,100794.53
2023-05-01T05:19:10.390Z,100802.69
2023-05-01T05:21:37.444Z,100801.56
2023-05-01T05:24:05.183Z,100807.03
2023-05-01T05:26:32.280Z,100799.66
2023-05-01T05:28:59.499Z,100806.78
2023-05-01T05:31:27.951Z,100803.72
2023-05-01T05:33:55.254Z,100817.16
2023-05-01T05:36:22.242Z,100824.19
2023-05-01T05:38:49.636Z,100817.72
2023-05-01T05:41:16.676Z,100815.00
2023-05-01T05:43:44.310Z,100814.44
2023-05-01T05:46:11.712Z,100816.81
2023-05-01T05:48:40.548Z,100824.25
2023-05-01T05:51:07.424Z,100826.84
2023-05-01T05:53:34.750Z,100830.16
2023-05-01T05:56:01.895Z,100825.50
2023-05-01T05:58:31.997Z,100824.16
2023-05-01T06:01:00.720Z,100845.06
2023-05-01T06:03:28.853Z,100827.59
2023-05-01T06:05:57.738Z,100851.06
2023-05-01T06:08:26.110Z,100831.56
2023-05-01T06:10:53.300Z,100862.91
2023-05-01T06:13:20.838Z,100862.47
2023-05-01T06:15:48.082Z,100862.88
2023-05-01T06:18:17.414Z,100861.41
2023-05-01T06:20:44.871Z,100861.44
2023-05-01T06:23:13.933Z,100858.16
2023-05-01T06:25:40.899Z,100863.69
2023-05-01T06:28:08.397Z,100862.19
2023-05-01T06:30:35.454Z,100861.13
2023-05-01T06:33:03.150Z,100857.50
2023-05-01T06:35:30.200Z,100852.56
2023-05-01T06:37:57.507Z,100849.41
2023-05-01T06:40:25.928Z,100847.84
2023-05-01T06:42:53.330Z,100854.44
2023-05-01T06:45:28.400Z,100848.03
2023-05-01T06:47:57.948Z,100858.56
2023-05-01T06:50:25.361Z,100844.13
2023-05-01T06:52:54.609Z,100850.78
2023-05-01T06:55:22.604Z,100824.88
2023-05-01T06:57:51.184Z,100856.59
2023-05-01T07:00:19.201Z,100857.88
2023-05-01T07:02:46.816Z,100861.28
2023-05-01T07:05:14.034Z,100858.22
2023-05-01T07:07:47.374Z,100856.69
2023-05-01T07:10:17.823Z,100856.13
2023-05-01T07:12:45.738Z,100859.28
2023-05-01T07:15:16.218Z,100858.88
2023-05-01T07:17:43.728Z,100860.63
2023-05-01T07:20:11.525Z,100862.50
2023-05-01T07:22:38.810Z,100877.22
2023-05-01T07:25:07.367Z,100872.09
2023-05-01T07:27:35.127Z,100877.78
2023-05-01T07:30:05.163Z,100862.28
2023-05-01T07:32:34.271Z,100881.50
2023-05-01T07:35:01.965Z,100877.75
2023-05-01T07:37:29.586Z,100883.41
2023-05-01T07:39:57.150Z,100878.19
2023-05-01T07:42:26.403Z,100880.28
2023-05-01T07:44:53.524Z,100848.44
2023-05-01T07:47:27.620Z,100894.16
2023-05-01T07:49:56.652Z,100884.38
2023-05-01T07:52:24.827Z,100895.91
2023-05-01T07:54:51.986Z,100806.31
2023-05-01T07:57:19.533Z,100878.38
2023-05-01T07:59:46.853Z,100890.06
2023-05-01T08:02:17.366Z,100897.31
2023-05-01T08:04:46.164Z,100892.25
2023-05-01T08:07:15.266Z,100893.09
2023-05-01T08:09:42.448Z,100895.38
2023-05-01T08:12:09.836Z,100884.28
2023-05-01T08:14:37.528Z,100896.53
2023-05-01T08:17:04.865Z,100896.78
2023-05-01T08:19:33.590Z,100902.06
2023-05-01T08:22:01.045Z,100898.25
2023-05-01T08:24:30.030Z,100823.66
2023-05-01T08:26:58.274Z,100865.66
2023-05-01T08:29:25.843Z,100883.69
2023-05-01T08:31:53.575Z,100825.91
2023-05-01T08:34:21.118Z,100834.13
2023-05-01T08:36:48.445Z,100903.94
2023-05-01T08:39:15.810Z,100847.53
2023-05-01T08:41:47.276Z,100884.31
2023-05-01T08:44:16.469Z,100894.53
2023-05-01T08:46:48.118Z,100899.50
2023-05-01T08:49:19.841Z,100834.28
2023-05-01T08:51:48.642Z,100884.34
2023-05-01T08:54:17.780Z,100886.22
2023-05-01T08:56:47.365Z,100878.53
2023-05-01T08:59:15.943Z,100779.97
2023-05-01T09:01:47.119Z,100814.53
2023-05-01T09:04:19.008Z,100880.38
2023-05-01T09:06:46.859Z,100886.44
2023-05-01T09:09:13.889Z,100883.53
2023-05-01T09:11:44.788Z,100878.53
2023-05-01T09:14:13.165Z,100875.84
2023-05-01T09:16:40.141Z,100870.63
2023-05-01T09:19:09.549Z,100866.50
2023-05-01T09:21:36.867Z,100877.91
2023-05-01T09:24:04.952Z,100874.94
2023-05-01T09:26:34.224Z,100875.78
2023-05-01T09:29:02.769Z,100876.84
2023-05-01T09:31:35.071Z,100879.38
2023-05-01T09:34:03.972Z,100843.53
2023-05-01T09:36:33.674Z,100882.66
2023-05-01T09:39:03.266Z,100882.63
2023-05-01T09:41:33.973Z,100873.44
2023-05-01T09:44:01.825Z,100873.22
2023-05-01T09:46:40.852Z,100876.34
2023-05-01T09:49:11.545Z,100873.44
2023-05-01T09:51:39.898Z,100871.72
2023-05-01T09:54:18.552Z,100868.13
2023-05-01T09:56:48.328Z,100851.06
2023-05-01T09:59:20.085Z,100827.59
2023-05-01T10:01:50.301Z,100860.72
2023-05-01T10:04:30.128Z,100860.34
2023-05-01T10:07:12.253Z,100799.00
2023-05-01T10:09:44.864Z,100852.19
2023-05-01T10:12:23.990Z,100788.44
2023-05-01T10:14:52.548Z,100843.44
2023-05-01T10:17:23.790Z,100839.41
2023-05-01T10:19:55.705Z,100843.50
2023-05-01T10:22:23.688Z,100838.06
2023-05-01T10:24:50.952Z,100841.53
2023-05-01T10:27:23.252Z,100842.69
2023-05-01T10:29:52.583Z,100807.72
2023-05-01T10:32:21.435Z,100841.00
2023-05-01T10:34:52.589Z,100798.88
2023-05-01T10:37:24.782Z,100782.53
2023-05-01T10:39:51.843Z,100807.81
2023-05-01T10:42:21.849Z,100767.41
2023-05-01T10:44:52.814Z,100841.16
2023-05-01T10:47:45.275Z,100840.22
2023-05-01T10:50:15.834Z,100763.59
2023-05-01T10:53:18.164Z,100812.00
2023-05-01T10:55:49.269Z,100833.31
2023-05-01T10:59:07.437Z,100818.19
2023-05-01T11:01:36.801Z,100818.75
2023-05-01T11:04:08.021Z,100827.50
2023-05-01T11:06:36.452Z,100825.06
2023-05-01T11:09:39.669Z,100818.06
2023-05-01T11:12:07.904Z,100824.81
2023-05-01T11:14:54.241Z,100828.34
2023-05-01T11:17:46.056Z,100814.09
2023-05-01T11:20:34.581Z,100798.66
2023-05-01T11:23:04.670Z,100817.78
2023-05-01T11:25:33.988Z,100814.22
2023-05-01T11:28:03.827Z,100804.19
2023-05-01T11:30:37.740Z,100813.84
2023-05-01T11:33:05.789Z,100810.16
2023-05-01T11:35:34.078Z,100787.84
2023-05-01T11:38:03.717Z,100784.72
2023-05-01T11:40:34.323Z,100811.44
2023-05-01T11:43:02.886Z,100796.94
2023-05-01T11:45:31.175Z,100808.47
2023-05-01T11:47:59.475Z,100800.06
2023-05-01T11:50:32.876Z,100793.56
2023-05-01T11:53:02.874Z,100807.91
2023-05-01T11:55:35.815Z,100788.69
2023-05-01T11:58:04.946Z,100797.72
2023-05-01T12:00:38.208Z,100796.78
2023-05-01T12:03:08.369Z,100795.94
2023-05-01T12:05:37.576Z,100770.84
2023-05-01T12:08:10.141Z,100785.94
2023-05-01T12:10:40.981Z,100782.47
2023-05-01T12:13:09.212Z,100780.28
2023-05-01T12:15:37.370Z,100780.97
2023-05-01T12:18:05.229Z,100778.75
2023-05-01T12:20:37.930Z,100771.53
2023-05-01T12:23:05.974Z,100778.56
2023-05-01T12:25:34.954Z,100776.91
2023-05-01T12:28:10.324Z,100775.38
2023-05-01T12:30:38.295Z,100777.97
2023-05-01T12:33:12.813Z,100766.34
2023-05-01T12:35:41.114Z,100757.44
2023-05-01T12:38:13.157Z,100764.16
2023-05-01T12:40:49.385Z,100752.03
2023-05-01T12:43:18.895Z,100747.28
2023-05-01T12:45:49.518Z,100741.00
2023-05-01T12:48:16.689Z,100751.13
2023-05-01T12:50:47.287Z,100748.59
2023-05-01T12:53:15.054Z,100744.31
2023-05-01T12:55:45.673Z,100713.03
2023-05-01T12:58:12.932Z,100747.53
2023-05-01T13:00:49.179Z,100746.97
2023-05-01T13:03:23.316Z,100734.75
2023-05-01T13:05:52.664Z,100722.88
2023-05-01T13:08:27.750Z,100740.00
2023-05-01T13:10:57.277Z,100736.78
2023-05-01T13:13:29.436Z,100737.00
2023-05-01T13:16:14.305Z,100727.72
2023-05-01T13:18:49.144Z,100704.50
2023-05-01T13:21:18.948Z,100733.69
2023-05-01T13:23:53.772Z,100731.81
2023-05-01T13:26:27.013Z,100723.84
2023-05-01T13:28:54.213Z,100724.72
2023-05-01T13:31:22.933Z,100731.03
2023-05-01T13:33:51.745Z,100722.66
2023-05-01T13:36:26.115Z,100718.88
2023-05-01T13:38:57.500Z,100701.16
2023-05-01T13:41:26.405Z,100723.53
2023-05-01T13:43:56.076Z,100720.00
2023-05-01T13:46:26.621Z,100720.75
2023-05-01T13:48:53.793Z,100711.81
2023-05-01T13:51:25.320Z,100714.53
2023-05-01T13:53:57.482Z,100707.53
2023-05-01T13:56:24.950Z,100699.00
2023-05-01T13:58:51.875Z,100704.91
2023-05-01T14:01:21.370Z,100707.56
2023-05-01T14:03:50.354Z,100684.53
2023-05-01T14:06:19.190Z,100690.41
2023-05-01T14:08:48.099Z,100697.84
2023-05-01T14:11:15.809Z,100698.69
2023-05-01T14:13:44.237Z,100683.44
2023-05-01T14:16:18.799Z,100687.50
2023-05-01T14:18:47.425Z,100674.44
2023-05-01T14:21:18.569Z,100677.16
2023-05-01T14:23:46.105Z,100674.53
2023-05-01T14:26:18.597Z,100669.16
2023-05-01T14:28:48.121Z,100676.22
2023-05-01T14:31:24.265Z,100676.78
2023-05-01T14:33:55.671Z,100679.88
2023-05-01T14:36:24.662Z,100680.69
2023-05-01T14:41:21.170Z,100640.09
2023-05-01T14:43:51.220Z,100661.13
2023-05-01T14:46:30.914Z,100671.59
2023-05-01T14:48:58.361Z,100667.22
2023-05-01T14:51:27.552Z,100668.38
2023-05-01T14:53:55.077Z,100618.84
2023-05-01T14:56:23.083Z,100650.69
2023-05-01T14:58:53.263Z,100670.28
2023-05-01T15:01:20.800Z,100666.97
2023-05-01T15:03:47.989Z,100653.59
2023-05-01T15:06:15.810Z,100661.59
2023-05-01T15:08:44.457Z,100670.75
2023-05-01T15:11:14.309Z,100670.47
2023-05-01T15:13:42.741Z,100673.97
2023-05-01T15:16:11.210Z,100660.19
2023-05-01T15:18:38.252Z,100668.25
2023-05-01T15:21:05.657Z,100664.38
2023-05-01T15:23:32.903Z,100666.72
2023-05-01T15:26:01.790Z,100669.25
2023-05-01T15:28:28.808Z,100668.03
2023-05-01T15:30:58.839Z,100674.28
2023-05-01T15:33:26.426Z,100649.06
2023-05-01T15:35:53.984Z,100653.41
2023-05-01T15:38:21.703Z,100671.81
2023-05-01T15:40:50.088Z,100669.34
2023-05-01T15:43:18.667Z,100665.47
2023-05-01T15:45:46.203Z,100666.31
2023-05-01T15:48:13.254Z,100640.69
2023-05-01T15:50:40.944Z,100665.81
2023-05-01T15:53:08.585Z,100650.84
2023-05-01T15:55:36.740Z,100671.00
2023-05-01T15:58:03.819Z,100665.47
2023-05-01T16:00:36.167Z,100629.69
2023-05-01T16:03:04.529Z,100661.78
2023-05-01T16:05:32.280Z,100661.38
2023-05-01T16:08:00.817Z,100666.72
2023-05-01T16:10:28.254Z,100661.78
2023-05-01T16:12:55.553Z,100611.34
2023-05-01T16:15:23.168Z,100652.34
2023-05-01T16:17:52.067Z,100654.47
2023-05-01T16:20:20.534Z,100616.47
2023-05-01T16:22:47.917Z,100652.63
2023-05-01T16:25:17.368Z,100640.09
2023-05-01T16:27:47.559Z,100660.06
2023-05-01T16:30:15.066Z,100650.53
2023-05-01T16:32:43.248Z,100627.06
2023-05-01T16:35:17.356Z,100654.94
2023-05-01T16:37:44.768Z,100662.69
2023-05-01T16:40:16.598Z,100664.38
2023-05-01T16:42:50.599Z,100645.44
2023-05-01T16:45:18.148Z,100656.88
2023-05-01T16:47:45.984Z,100663.31
2023-05-01T16:50:16.399Z,100669.38
2023-05-01T16:52:43.813Z,100663.78
2023-05-01T16:55:11.592Z,100674.00
2023-05-01T16:57:38.658Z,100670.09
2023-05-01T17:00:09.484Z,100660.94
2023-05-01T17:02:37.047Z,100670.72
2023-05-01T17:05:04.920Z,100680.94
2023-05-01T17:07:35.264Z,100677.78
2023-05-01T17:10:07.677Z,100662.44
2023-05-01T17:12:36.798Z,100665.97
2023-05-01T17:15:04.856Z,100671.78
2023-05-01T17:17:32.264Z,100675.50
2023-05-01T17:19:59.784Z,100670.94
2023-05-01T17:22:29.043Z,100644.91
2023-05-01T17:25:02.133Z,100669.47
2023-05-01T17:27:29.690Z,100650.75
2023-05-01T17:30:26.055Z,100677.78
2023-05-01T17:32:53.762Z,100643.69
2023-05-01T17:35:21.201Z,100684.88
2023-05-01T17:37:48.166Z,100669.88
2023-05-01T17:40:17.270Z,100670.72
2023-05-01T17:42:47.302Z,100679.44
2023-05-01T17:45:14.836Z,100677.56
2023-05-01T17:47:45.270Z,100611.94
2023-05-01T17:50:16.134Z,100677.75
2023-05-01T17:52:45.149Z,100627.75
2023-05-01T17:55:18.317Z,100691.03
2023-05-01T17:57:47.713Z,100623.78
2023-05-01T18:00:16.310Z,100620.44
2023-05-01T18:02:45.105Z,100687.84
2023-05-01T18:05:13.223Z,100680.13
2023-05-01T18:07:40.971Z,100685.09
2023-05-01T18:10:10.764Z,100677.75
2023-05-01T18:12:40.225Z,100677.53
2023-05-01T18:15:11.704Z,100689.53
2023-05-01T18:17:38.720Z,100687.19
2023-05-01T18:20:09.436Z,100629.22
2023-05-01T18:22:38.111Z,100627.25
2023-05-01T18:25:07.801Z,100622.03
2023-05-01T18:27:35.716Z,100704.63
2023-05-01T18:30:03.180Z,100706.66
2023-05-01T18:32:46.910Z,100700.19
2023-05-01T18:35:21.162Z,100701.38
2023-05-01T18:37:48.157Z,100699.88
2023-05-01T18:40:15.506Z,100642.22
2023-05-01T18:42:42.950Z,100703.31
2023-05-01T18:45:10.861Z,100640.88
2023-05-01T18:47:48.955Z,100565.56
2023-05-01T18:50:21.556Z,100649.81
2023-05-01T18:52:49.030Z,100712.66
2023-05-01T18:55:17.674Z,100652.56
2023-05-01T18:57:46.722Z,100705.63
2023-05-01T19:00:16.810Z,100636.50
2023-05-01T19:02:54.270Z,100644.75
2023-05-01T19:05:22.816Z,100564.91
2023-05-01T19:07:50.108Z,100651.84
2023-05-01T19:10:18.051Z,100697.50
2023-05-01T19:12:48.371Z,100711.53
2023-05-01T19:15:18.464Z,100700.88
2023-05-01T19:17:46.985Z,100659.41
2023-05-01T19:20:14.218Z,100737.81
2023-05-01T19:22:41.489Z,100722.75
2023-05-01T19:25:09.921Z,100737.34
2023-05-01T19:27:37.246Z,100742.91
2023-05-01T19:30:05.672Z,100600.50
2023-05-01T19:32:32.874Z,100725.47
2023-05-01T19:35:01.802Z,100750.53
2023-05-01T19:37:28.833Z,100757.75
2023-05-01T19:39:56.719Z,100724.78
2023-05-01T19:42:24.024Z,100756.63
2023-05-01T19:44:51.314Z,100756.50
2023-05-01T19:47:18.341Z,100757.91
2023-05-01T19:49:45.895Z,100736.81
2023-05-01T19:52:14.703Z,100757.06
2023-05-01T19:54:44.945Z,100756.38
2023-05-01T19:57:12.965Z,100689.44
2023-05-01T19:59:41.303Z,100691.34
2023-05-01T20:02:10.744Z,100684.78
2023-05-01T20:04:38.773Z,100690.06
2023-05-01T20:07:06.397Z,100709.97
2023-05-01T20:09:35.359Z,100783.47
2023-05-01T20:12:03.201Z,100712.78
2023-05-01T20:14:33.528Z,100775.09
2023-05-01T20:17:01.381Z,100695.44
2023-05-01T20:19:29.035Z,100702.31
2023-05-01T20:21:56.216Z,100708.88
2023-05-01T20:24:24.969Z,100766.94
2023-05-01T20:26:55.861Z,100779.97
2023-05-01T20:29:27.032Z,100641.66
2023-05-01T20:31:54.810Z,100745.19
2023-05-01T20:34:23.476Z,100753.25
2023-05-01T20:36:50.735Z,100683.34
2023-05-01T20:39:18.069Z,100704.63
2023-05-01T20:41:46.358Z,100788.81
2023-05-01T20:44:15.674Z,100717.19
2023-05-01T20:46:43.354Z,100710.50
2023-05-01T20:49:12.529Z,100787.84
2023-05-01T20:51:41.640Z,100698.97
2023-05-01T20:54:09.444Z,100715.75
2023-05-01T20:56:36.529Z,100716.25
2023-05-01T20:59:04.799Z,100710.06
2023-05-01T21:01:33.391Z,100788.03
2023-05-01T21:04:00.906Z,100791.75
2023-05-01T21:06:31.600Z,100725.00
2023-05-01T21:08:59.578Z,100719.66
2023-05-01T21:11:26.652Z,100703.53
2023-05-01T21:13:54.159Z,100728.50
2023-05-01T21:16:21.321Z,100709.25
2023-05-01T21:18:50.073Z,100710.91
2023-05-01T21:21:17.226Z,100790.94
2023-05-01T21:23:48.801Z,100722.34
2023-05-01T21:26:16.373Z,100733.56
2023-05-01T21:28:43.755Z,100727.81
2023-05-01T21:31:12.217Z,100753.09
2023-05-01T21:33:40.487Z,100789.91
2023-05-01T21:36:10.694Z,100766.50
2023-05-01T21:38:39.123Z,100730.66
2023-05-01T21:41:06.346Z,100791.09
2023-05-01T21:43:34.814Z,100712.91
2023-05-01T21:46:02.765Z,100792.56
2023-05-01T21:48:34.667Z,100736.69
2023-05-01T21:51:01.716Z,100725.78
2023-05-01T21:53:32.209Z,100805.81
2023-05-01T21:55:59.301Z,100806.81
2023-05-01T21:58:28.237Z,100801.28
2023-05-01T22:00:55.491Z,100747.06
2023-05-01T22:03:25.008Z,100751.25
2023-05-01T22:05:53.130Z,100661.91
2023-05-01T22:08:20.528Z,100729.19
2023-05-01T22:10:49.361Z,100714.94
2023-05-01T22:13:17.052Z,100799.47
2023-05-01T22:15:44.071Z,100780.56
2023-05-01T22:18:11.554Z,100802.88
2023-05-01T22:20:38.500Z,100735.22
2023-05-01T22:23:05.852Z,100802.06
2023-05-01T22:25:33.049Z,100799.53
2023-05-01T22:28:04.303Z,100801.41
2023-05-01T22:30:31.504Z,100736.13
2023-05-01T22:32:58.991Z,100803.44
2023-05-01T22:35:26.305Z,100728.41
2023-05-01T22:37:53.604Z,100802.28
2023-05-01T22:40:20.715Z,100773.44
2023-05-01T22:42:48.101Z,100727.25
2023-05-01T22:45:16.820Z,100724.41
2023-05-01T22:47:44.184Z,100808.66
2023-05-01T22:50:12.092Z,100800.47
2023-05-01T22:52:40.296Z,100797.25
2023-05-01T22:55:07.891Z,100700.97
2023-05-01T22:57:35.186Z,100720.56
2023-05-01T23:00:02.444Z,100800.78
2023-05-01T23:02:32.985Z,100737.81
2023-05-01T23:05:00.333Z,100802.44
2023-05-01T23:07:27.609Z,100729.56
2023-05-01T23:09:56.220Z,100746.66
2023-05-01T23:12:25.672Z,100727.38
2023-05-01T23:14:54.599Z,100722.69
2023-05-01T23:17:22.082Z,100799.25
2023-05-01T23:19:50.485Z,100795.06
2023-05-01T23:22:19.213Z,100754.19
2023-05-01T23:24:48.383Z,100709.63
2023-05-01T23:27:16.877Z,100716.81
2023-05-01T23:29:52.210Z,100709.28
2023-05-01T23:32:25.472Z,100717.00
2023-05-01T23:34:55.227Z,100782.88
2023-05-01T23:37:22.657Z,100700.59
2023-05-01T23:39:49.606Z,100781.00
2023-05-01T23:42:16.965Z,100694.75
2023-05-01T23:44:44.069Z,100693.41
2023-05-01T23:47:11.662Z,100645.34
2023-05-01T23:49:38.843Z,100780.00
2023-05-01T23:52:07.810Z,100778.34
2023-05-01T23:54:35.127Z,100741.78
2023-05-01T23:57:02.465Z,100784.19
2023-05-01T23:59:29.413Z,100695.88
